sensor_id;sensor_type;location;lat;lon;timestamp;temperature;humidity
54832;DHT22;40730;53.068;6.572;2023-04-24T00:01:40;10.60;99.90
54832;DHT22;40730;53.068;6.572;2023-04-24T00:04:08;10.50;99.90
54832;DHT22;40730;53.068;6.572;2023-04-24T00:06:39;10.60;99.90
54832;DHT22;40730;53.068;6.572;2023-04-24T00:09:08;10.40;99.90
54832;DHT22;40730;53.068;6.572;2023-04-24T00:11:35;10.40;99.90
54832;DHT22;40730;53.068;6.572;2023-04-24T00:14:01;10.40;99.90
54832;DHT22;40730;53.068;6.572;2023-04-24T00:16:27;10.30;99.90
54832;DHT22;40730;53.068;6.572;2023-04-24T00:18:53;10.30;99.90
54832;DHT22;40730;53.068;6.572;2023-04-24T00:21:19;10.30;99.90
54832;DHT22;40730;53.068;6.572;2023-04-24T00:23:44;10.30;99.90
54832;DHT22;40730;53.068;6.572;2023-04-24T00:26:10;10.20;99.90
54832;DHT22;40730;53.068;6.572;2023-04-24T00:28:36;10.20;99.90
54832;DHT22;40730;53.068;6.572;2023-04-24T00:31:01;10.10;99.90
54832;DHT22;40730;53.068;6.572;2023-04-24T00:33:27;10.40;99.90
54832;DHT22;40730;53.068;6.572;2023-04-24T00:35:52;10.10;99.90
54832;DHT22;40730;53.068;6.572;2023-04-24T00:38:18;10.10;99.90
54832;DHT22;40730;53.068;6.572;2023-04-24T00:40:44;10.10;99.90
54832;DHT22;40730;53.068;6.572;2023-04-24T00:43:10;10.10;99.90
54832;DHT22;40730;53.068;6.572;2023-04-24T00:45:36;10.00;99.90
54832;DHT22;40730;53.068;6.572;2023-04-24T00:48:02;10.00;99.90
54832;DHT22;40730;53.068;6.572;2023-04-24T00:50:28;10.00;99.90
54832;DHT22;40730;53.068;6.572;2023-04-24T00:52:54;9.90;99.90
54832;DHT22;40730;53.068;6.572;2023-04-24T00:55:19;10.00;99.90
54832;DHT22;40730;53.068;6.572;2023-04-24T00:57:46;9.90;99.90
54832;DHT22;40730;53.068;6.572;2023-04-24T01:00:12;10.00;99.90
54832;DHT22;40730;53.068;6.572;2023-04-24T01:02:43;9.90;99.90
54832;DHT22;40730;53.068;6.572;2023-04-24T01:05:11;9.90;99.90
54832;DHT22;40730;53.068;6.572;2023-04-24T01:07:38;9.80;99.90
54832;DHT22;40730;53.068;6.572;2023-04-24T01:10:04;9.90;99.90
54832;DHT22;40730;53.068;6.572;2023-04-24T01:12:30;9.80;99.90
54832;DHT22;40730;53.068;6.572;2023-04-24T01:14:56;9.80;99.90
54832;DHT22;40730;53.068;6.572;2023-04-24T01:17:22;9.90;99.90
54832;DHT22;40730;53.068;6.572;2023-04-24T01:19:47;9.80;99.90
54832;DHT22;40730;53.068;6.572;2023-04-24T01:22:14;9.80;99.90
54832;DHT22;40730;53.068;6.572;2023-04-24T01:24:41;9.80;99.90
54832;DHT22;40730;53.068;6.572;2023-04-24T01:27:08;9.80;99.90
54832;DHT22;40730;53.068;6.572;2023-04-24T01:29:34;9.80;99.90
54832;DHT22;40730;53.068;6.572;2023-04-24T01:32:00;9.80;99.90
54832;DHT22;40730;53.068;6.572;2023-04-24T01:34:26;9.80;99.90
54832;DHT22;40730;53.068;6.572;2023-04-24T01:36:52;9.80;99.90
54832;DHT22;40730;53.068;6.572;2023-04-24T01:39:18;9.80;99.90
54832;DHT22;40730;53.068;6.572;2023-04-24T01:41:46;9.70;99.90
54832;DHT22;40730;53.068;6.572;2023-04-24T01:44:12;9.70;99.90
54832;DHT22;40730;53.068;6.572;2023-04-24T01:46:38;9.70;99.90
54832;DHT22;40730;53.068;6.572;2023-04-24T01:49:04;10.20;99.90
54832;DHT22;40730;53.068;6.572;2023-04-24T01:51:29;9.70;99.90
54832;DHT22;40730;53.068;6.572;2023-04-24T01:53:55;9.70;99.90
54832;DHT22;40730;53.068;6.572;2023-04-24T01:56:22;9.70;99.90
54832;DHT22;40730;53.068;6.572;2023-04-24T01:58:50;9.70;99.90
54832;DHT22;40730;53.068;6.572;2023-04-24T02:01:20;9.70;99.90
54832;DHT22;40730;53.068;6.572;2023-04-24T02:03:46;9.80;99.90
54832;DHT22;40730;53.068;6.572;2023-04-24T02:06:12;9.80;99.90
54832;DHT22;40730;53.068;6.572;2023-04-24T02:08:38;9.70;99.90
54832;DHT22;40730;53.068;6.572;2023-04-24T02:11:03;9.80;99.90
54832;DHT22;40730;53.068;6.572;2023-04-24T02:13:29;9.80;99.90
54832;DHT22;40730;53.068;6.572;2023-04-24T02:15:54;9.80;99.90
54832;DHT22;40730;53.068;6.572;2023-04-24T02:18:20;9.80;99.90
54832;DHT22;40730;53.068;6.572;2023-04-24T02:20:48;10.00;99.90
54832;DHT22;40730;53.068;6.572;2023-04-24T02:23:13;9.80;99.90
54832;DHT22;40730;53.068;6.572;2023-04-24T02:25:39;9.70;99.90
54832;DHT22;40730;53.068;6.572;2023-04-24T02:28:05;10.10;99.90
54832;DHT22;40730;53.068;6.572;2023-04-24T02:30:31;9.80;99.90
54832;DHT22;40730;53.068;6.572;2023-04-24T02:32:56;10.00;99.90
54832;DHT22;40730;53.068;6.572;2023-04-24T02:35:22;9.80;99.90
54832;DHT22;40730;53.068;6.572;2023-04-24T02:37:47;9.80;99.90
54832;DHT22;40730;53.068;6.572;2023-04-24T02:40:13;9.90;99.90
54832;DHT22;40730;53.068;6.572;2023-04-24T02:42:39;9.90;99.90
54832;DHT22;40730;53.068;6.572;2023-04-24T02:45:05;9.80;99.90
54832;DHT22;40730;53.068;6.572;2023-04-24T02:47:31;9.80;99.90
54832;DHT22;40730;53.068;6.572;2023-04-24T02:49:56;9.90;99.90
54832;DHT22;40730;53.068;6.572;2023-04-24T02:52:22;9.80;99.90
54832;DHT22;40730;53.068;6.572;2023-04-24T02:54:47;9.80;99.90
54832;DHT22;40730;53.068;6.572;2023-04-24T02:57:13;9.80;99.90
54832;DHT22;40730;53.068;6.572;2023-04-24T02:59:38;9.90;99.90
54832;DHT22;40730;53.068;6.572;2023-04-24T03:02:04;9.80;99.90
54832;DHT22;40730;53.068;6.572;2023-04-24T03:04:31;9.90;99.90
54832;DHT22;40730;53.068;6.572;2023-04-24T03:06:57;9.70;99.90
54832;DHT22;40730;53.068;6.572;2023-04-24T03:09:23;9.70;99.90
54832;DHT22;40730;53.068;6.572;2023-04-24T03:11:49;9.70;99.90
54832;DHT22;40730;53.068;6.572;2023-04-24T03:14:15;9.70;99.90
54832;DHT22;40730;53.068;6.572;2023-04-24T03:16:41;9.70;99.90
54832;DHT22;40730;53.068;6.572;2023-04-24T03:19:06;9.70;99.90
54832;DHT22;40730;53.068;6.572;2023-04-24T03:21:32;9.70;99.90
54832;DHT22;40730;53.068;6.572;2023-04-24T03:23:58;9.70;99.90
54832;DHT22;40730;53.068;6.572;2023-04-24T03:26:24;9.60;99.90
54832;DHT22;40730;53.068;6.572;2023-04-24T03:28:50;9.60;99.90
54832;DHT22;40730;53.068;6.572;2023-04-24T03:31:15;9.60;99.90
54832;DHT22;40730;53.068;6.572;2023-04-24T03:33:42;9.60;99.90
54832;DHT22;40730;53.068;6.572;2023-04-24T03:36:07;9.60;99.90
54832;DHT22;40730;53.068;6.572;2023-04-24T03:38:33;9.60;99.90
54832;DHT22;40730;53.068;6.572;2023-04-24T03:40:58;9.60;99.90
54832;DHT22;40730;53.068;6.572;2023-04-24T03:43:24;9.60;99.90
54832;DHT22;40730;53.068;6.572;2023-04-24T03:45:50;9.60;99.90
54832;DHT22;40730;53.068;6.572;2023-04-24T03:48:16;9.60;99.90
54832;DHT22;40730;53.068;6.572;2023-04-24T03:50:41;9.60;99.90
54832;DHT22;40730;53.068;6.572;2023-04-24T03:53:07;9.60;99.90
54832;DHT22;40730;53.068;6.572;2023-04-24T03:55:33;9.60;99.90
54832;DHT22;40730;53.068;6.572;2023-04-24T03:57:59;9.50;99.90
54832;DHT22;40730;53.068;6.572;2023-04-24T04:00:24;9.70;99.90
54832;DHT22;40730;53.068;6.572;2023-04-24T04:02:51;9.50;99.90
54832;DHT22;40730;53.068;6.572;2023-04-24T04:05:17;9.50;99.90
54832;DHT22;40730;53.068;6.572;2023-04-24T04:07:42;9.50;99.90
54832;DHT22;40730;53.068;6.572;2023-04-24T04:10:08;9.80;99.90
54832;DHT22;40730;53.068;6.572;2023-04-24T04:12:33;9.50;99.90
54832;DHT22;40730;53.068;6.572;2023-04-24T04:14:59;9.50;99.90
54832;DHT22;40730;53.068;6.572;2023-04-24T04:17:25;9.50;99.90
54832;DHT22;40730;53.068;6.572;2023-04-24T04:19:51;9.50;99.90
54832;DHT22;40730;53.068;6.572;2023-04-24T04:22:16;9.50;99.90
54832;DHT22;40730;53.068;6.572;2023-04-24T04:24:42;9.50;99.90
54832;DHT22;40730;53.068;6.572;2023-04-24T04:27:08;9.50;99.90
54832;DHT22;40730;53.068;6.572;2023-04-24T04:29:34;9.50;99.90
54832;DHT22;40730;53.068;6.572;2023-04-24T04:32:00;9.50;99.90
54832;DHT22;40730;53.068;6.572;2023-04-24T04:34:26;9.50;99.90
54832;DHT22;40730;53.068;6.572;2023-04-24T04:36:52;9.40;99.90
54832;DHT22;40730;53.068;6.572;2023-04-24T04:39:17;9.50;99.90
54832;DHT22;40730;53.068;6.572;2023-04-24T04:41:44;9.40;99.90
54832;DHT22;40730;53.068;6.572;2023-04-24T04:44:12;9.40;99.90
54832;DHT22;40730;53.068;6.572;2023-04-24T04:46:38;9.40;99.90
54832;DHT22;40730;53.068;6.572;2023-04-24T04:49:03;9.40;99.90
54832;DHT22;40730;53.068;6.572;2023-04-24T04:51:29;9.40;99.90
54832;DHT22;40730;53.068;6.572;2023-04-24T04:53:56;9.40;99.90
54832;DHT22;40730;53.068;6.572;2023-04-24T04:56:21;9.40;99.90
54832;DHT22;40730;53.068;6.572;2023-04-24T04:58:47;9.50;99.90
54832;DHT22;40730;53.068;6.572;2023-04-24T05:01:13;9.40;99.90
54832;DHT22;40730;53.068;6.572;2023-04-24T05:03:39;9.40;99.90
54832;DHT22;40730;53.068;6.572;2023-04-24T05:06:05;9.40;99.90
54832;DHT22;40730;53.068;6.572;2023-04-24T05:08:31;9.50;99.90
54832;DHT22;40730;53.068;6.572;2023-04-24T05:10:56;9.50;99.90
54832;DHT22;40730;53.068;6.572;2023-04-24T05:13:22;9.40;99.90
54832;DHT22;40730;53.068;6.572;2023-04-24T05:15:47;9.50;99.90
54832;DHT22;40730;53.068;6.572;2023-04-24T05:18:13;9.50;99.90
54832;DHT22;40730;53.068;6.572;2023-04-24T05:20:39;9.70;99.90
54832;DHT22;40730;53.068;6.572;2023-04-24T05:23:04;9.40;99.90
54832;DHT22;40730;53.068;6.572;2023-04-24T05:25:30;9.40;99.90
54832;DHT22;40730;53.068;6.572;2023-04-24T05:28:00;9.40;99.90
54832;DHT22;40730;53.068;6.572;2023-04-24T05:30:26;9.40;99.90
54832;DHT22;40730;53.068;6.572;2023-04-24T05:32:52;9.40;99.90
54832;DHT22;40730;53.068;6.572;2023-04-24T05:35:17;9.70;99.90
54832;DHT22;40730;53.068;6.572;2023-04-24T05:37:44;9.40;99.90
54832;DHT22;40730;53.068;6.572;2023-04-24T05:40:10;9.40;99.90
54832;DHT22;40730;53.068;6.572;2023-04-24T05:42:36;9.40;99.90
54832;DHT22;40730;53.068;6.572;2023-04-24T05:45:02;9.40;99.90
54832;DHT22;40730;53.068;6.572;2023-04-24T05:47:28;9.40;99.90
54832;DHT22;40730;53.068;6.572;2023-04-24T05:49:53;9.50;99.90
54832;DHT22;40730;53.068;6.572;2023-04-24T05:52:19;9.50;99.90
54832;DHT22;40730;53.068;6.572;2023-04-24T05:54:44;9.50;99.90
54832;DHT22;40730;53.068;6.572;2023-04-24T05:57:10;9.50;99.90
54832;DHT22;40730;53.068;6.572;2023-04-24T05:59:37;9.60;99.90
54832;DHT22;40730;53.068;6.572;2023-04-24T06:02:06;9.60;99.90
54832;DHT22;40730;53.068;6.572;2023-04-24T06:04:32;9.90;99.90
54832;DHT22;40730;53.068;6.572;2023-04-24T06:06:58;9.70;99.90
54832;DHT22;40730;53.068;6.572;2023-04-24T06:09:24;9.60;99.90
54832;DHT22;40730;53.068;6.572;2023-04-24T06:11:50;9.70;99.90
54832;DHT22;40730;53.068;6.572;2023-04-24T06:14:18;9.70;99.90
54832;DHT22;40730;53.068;6.572;2023-04-24T06:16:44;9.70;99.90
54832;DHT22;40730;53.068;6.572;2023-04-24T06:19:09;9.70;99.90
54832;DHT22;40730;53.068;6.572;2023-04-24T06:21:35;9.70;99.90
54832;DHT22;40730;53.068;6.572;2023-04-24T06:24:00;9.70;99.90
54832;DHT22;40730;53.068;6.572;2023-04-24T06:26:27;9.60;99.90
54832;DHT22;40730;53.068;6.572;2023-04-24T06:28:53;9.60;99.90
54832;DHT22;40730;53.068;6.572;2023-04-24T06:31:21;9.60;99.90
54832;DHT22;40730;53.068;6.572;2023-04-24T06:33:48;9.60;99.90
54832;DHT22;40730;53.068;6.572;2023-04-24T06:36:15;9.60;99.90
54832;DHT22;40730;53.068;6.572;2023-04-24T06:38:41;9.60;99.90
54832;DHT22;40730;53.068;6.572;2023-04-24T06:41:07;9.60;99.90
54832;DHT22;40730;53.068;6.572;2023-04-24T06:43:33;9.60;99.90
54832;DHT22;40730;53.068;6.572;2023-04-24T06:45:59;9.60;99.90
54832;DHT22;40730;53.068;6.572;2023-04-24T06:48:25;9.60;99.90
54832;DHT22;40730;53.068;6.572;2023-04-24T06:50:52;9.60;99.90
54832;DHT22;40730;53.068;6.572;2023-04-24T06:53:17;9.60;99.90
54832;DHT22;40730;53.068;6.572;2023-04-24T06:55:43;9.60;99.90
54832;DHT22;40730;53.068;6.572;2023-04-24T06:58:11;9.70;99.90
54832;DHT22;40730;53.068;6.572;2023-04-24T07:00:37;9.70;99.90
54832;DHT22;40730;53.068;6.572;2023-04-24T07:03:03;9.70;99.90
54832;DHT22;40730;53.068;6.572;2023-04-24T07:05:30;9.70;99.90
54832;DHT22;40730;53.068;6.572;2023-04-24T07:07:56;9.80;99.90
54832;DHT22;40730;53.068;6.572;2023-04-24T07:10:24;9.70;99.90
54832;DHT22;40730;53.068;6.572;2023-04-24T07:12:51;9.70;99.90
54832;DHT22;40730;53.068;6.572;2023-04-24T07:15:16;9.80;99.90
54832;DHT22;40730;53.068;6.572;2023-04-24T07:17:42;9.80;99.90
54832;DHT22;40730;53.068;6.572;2023-04-24T07:20:11;9.80;99.90
54832;DHT22;40730;53.068;6.572;2023-04-24T07:22:40;9.80;99.90
54832;DHT22;40730;53.068;6.572;2023-04-24T07:25:06;9.80;99.90
54832;DHT22;40730;53.068;6.572;2023-04-24T07:27:32;9.80;99.90
54832;DHT22;40730;53.068;6.572;2023-04-24T07:29:58;9.80;99.90
54832;DHT22;40730;53.068;6.572;2023-04-24T07:32:24;9.80;99.90
54832;DHT22;40730;53.068;6.572;2023-04-24T07:34:50;9.80;99.90
54832;DHT22;40730;53.068;6.572;2023-04-24T07:37:16;9.80;99.90
54832;DHT22;40730;53.068;6.572;2023-04-24T07:39:41;9.80;99.90
54832;DHT22;40730;53.068;6.572;2023-04-24T07:42:07;9.80;99.90
54832;DHT22;40730;53.068;6.572;2023-04-24T07:44:33;9.80;99.90
54832;DHT22;40730;53.068;6.572;2023-04-24T07:46:58;9.70;99.90
54832;DHT22;40730;53.068;6.572;2023-04-24T07:49:24;9.70;99.90
54832;DHT22;40730;53.068;6.572;2023-04-24T07:51:50;9.60;99.90
54832;DHT22;40730;53.068;6.572;2023-04-24T07:54:15;9.60;99.90
54832;DHT22;40730;53.068;6.572;2023-04-24T07:56:43;9.60;99.90
54832;DHT22;40730;53.068;6.572;2023-04-24T07:59:09;9.50;99.90
54832;DHT22;40730;53.068;6.572;2023-04-24T08:01:35;9.50;99.90
54832;DHT22;40730;53.068;6.572;2023-04-24T08:04:01;9.50;99.90
54832;DHT22;40730;53.068;6.572;2023-04-24T08:06:27;9.50;99.90
54832;DHT22;40730;53.068;6.572;2023-04-24T08:08:57;9.40;99.90
54832;DHT22;40730;53.068;6.572;2023-04-24T08:11:23;9.40;99.90
54832;DHT22;40730;53.068;6.572;2023-04-24T08:13:49;9.40;99.90
54832;DHT22;40730;53.068;6.572;2023-04-24T08:16:15;9.40;99.90
54832;DHT22;40730;53.068;6.572;2023-04-24T08:18:40;9.30;99.90
54832;DHT22;40730;53.068;6.572;2023-04-24T08:21:06;9.30;99.90
54832;DHT22;40730;53.068;6.572;2023-04-24T08:23:32;9.30;99.90
54832;DHT22;40730;53.068;6.572;2023-04-24T08:25:58;9.30;99.90
54832;DHT22;40730;53.068;6.572;2023-04-24T08:28:23;9.30;99.90
54832;DHT22;40730;53.068;6.572;2023-04-24T08:30:49;9.20;99.90
54832;DHT22;40730;53.068;6.572;2023-04-24T08:33:23;9.20;99.90
54832;DHT22;40730;53.068;6.572;2023-04-24T08:35:48;9.10;99.90
54832;DHT22;40730;53.068;6.572;2023-04-24T08:38:15;8.90;99.90
54832;DHT22;40730;53.068;6.572;2023-04-24T08:40:41;9.00;99.90
54832;DHT22;40730;53.068;6.572;2023-04-24T08:43:07;9.00;99.90
54832;DHT22;40730;53.068;6.572;2023-04-24T08:45:33;9.00;99.90
54832;DHT22;40730;53.068;6.572;2023-04-24T08:47:59;8.90;99.90
54832;DHT22;40730;53.068;6.572;2023-04-24T08:50:25;8.90;99.90
54832;DHT22;40730;53.068;6.572;2023-04-24T08:52:51;8.90;99.90
54832;DHT22;40730;53.068;6.572;2023-04-24T08:55:19;8.90;99.90
54832;DHT22;40730;53.068;6.572;2023-04-24T08:57:50;8.90;99.90
54832;DHT22;40730;53.068;6.572;2023-04-24T09:00:17;8.80;99.90
54832;DHT22;40730;53.068;6.572;2023-04-24T09:02:43;8.80;99.90
54832;DHT22;40730;53.068;6.572;2023-04-24T09:05:10;8.80;99.90
54832;DHT22;40730;53.068;6.572;2023-04-24T09:07:36;8.70;99.90
54832;DHT22;40730;53.068;6.572;2023-04-24T09:10:05;8.70;99.90
54832;DHT22;40730;53.068;6.572;2023-04-24T09:12:32;8.70;99.90
54832;DHT22;40730;53.068;6.572;2023-04-24T09:15:00;8.70;99.90
54832;DHT22;40730;53.068;6.572;2023-04-24T09:17:26;8.70;99.90
54832;DHT22;40730;53.068;6.572;2023-04-24T09:19:53;8.70;99.90
54832;DHT22;40730;53.068;6.572;2023-04-24T09:22:20;8.80;99.90
54832;DHT22;40730;53.068;6.572;2023-04-24T09:24:46;8.70;99.90
54832;DHT22;40730;53.068;6.572;2023-04-24T09:27:12;8.70;99.90
54832;DHT22;40730;53.068;6.572;2023-04-24T09:29:53;8.70;99.90
54832;DHT22;40730;53.068;6.572;2023-04-24T09:32:20;8.80;99.90
54832;DHT22;40730;53.068;6.572;2023-04-24T09:37:38;8.80;99.90
54832;DHT22;40730;53.068;6.572;2023-04-24T09:40:15;8.80;99.90
54832;DHT22;40730;53.068;6.572;2023-04-24T09:42:45;8.80;99.90
54832;DHT22;40730;53.068;6.572;2023-04-24T09:45:12;8.80;99.90
54832;DHT22;40730;53.068;6.572;2023-04-24T09:47:38;8.80;99.90
54832;DHT22;40730;53.068;6.572;2023-04-24T09:50:16;8.80;99.90
54832;DHT22;40730;53.068;6.572;2023-04-24T09:53:03;8.80;99.90
54832;DHT22;40730;53.068;6.572;2023-04-24T09:55:29;8.80;99.90
54832;DHT22;40730;53.068;6.572;2023-04-24T09:57:57;8.90;99.90
54832;DHT22;40730;53.068;6.572;2023-04-24T10:00:29;8.90;99.90
54832;DHT22;40730;53.068;6.572;2023-04-24T10:03:02;8.90;99.90
54832;DHT22;40730;53.068;6.572;2023-04-24T10:05:29;8.90;99.90
54832;DHT22;40730;53.068;6.572;2023-04-24T10:08:09;8.90;99.90
54832;DHT22;40730;53.068;6.572;2023-04-24T10:10:46;9.00;99.90
54832;DHT22;40730;53.068;6.572;2023-04-24T10:13:13;9.00;99.90
54832;DHT22;40730;53.068;6.572;2023-04-24T10:15:40;9.10;99.90
54832;DHT22;40730;53.068;6.572;2023-04-24T10:18:07;9.20;99.90
54832;DHT22;40730;53.068;6.572;2023-04-24T10:20:35;9.20;99.90
54832;DHT22;40730;53.068;6.572;2023-04-24T10:23:02;9.30;99.90
54832;DHT22;40730;53.068;6.572;2023-04-24T10:25:30;9.40;99.90
54832;DHT22;40730;53.068;6.572;2023-04-24T10:27:58;9.40;99.90
54832;DHT22;40730;53.068;6.572;2023-04-24T10:30:29;9.50;99.90
54832;DHT22;40730;53.068;6.572;2023-04-24T10:32:55;9.50;99.90
54832;DHT22;40730;53.068;6.572;2023-04-24T10:35:23;9.50;99.90
54832;DHT22;40730;53.068;6.572;2023-04-24T10:38:02;9.50;99.90
54832;DHT22;40730;53.068;6.572;2023-04-24T10:40:34;9.40;99.90
54832;DHT22;40730;53.068;6.572;2023-04-24T10:43:07;9.40;99.90
54832;DHT22;40730;53.068;6.572;2023-04-24T10:45:35;9.40;99.90
54832;DHT22;40730;53.068;6.572;2023-04-24T10:48:08;9.50;99.90
54832;DHT22;40730;53.068;6.572;2023-04-24T10:50:46;9.50;99.90
54832;DHT22;40730;53.068;6.572;2023-04-24T10:53:23;9.60;99.90
54832;DHT22;40730;53.068;6.572;2023-04-24T10:55:58;9.70;99.90
54832;DHT22;40730;53.068;6.572;2023-04-24T10:58:25;9.70;99.90
54832;DHT22;40730;53.068;6.572;2023-04-24T11:01:00;9.70;99.90
54832;DHT22;40730;53.068;6.572;2023-04-24T11:03:29;9.70;99.90
54832;DHT22;40730;53.068;6.572;2023-04-24T11:06:02;9.70;99.90
54832;DHT22;40730;53.068;6.572;2023-04-24T11:08:36;9.70;99.90
54832;DHT22;40730;53.068;6.572;2023-04-24T11:11:16;9.70;99.90
54832;DHT22;40730;53.068;6.572;2023-04-24T11:24:49;9.60;99.90
54832;DHT22;40730;53.068;6.572;2023-04-24T11:27:21;9.50;99.90
54832;DHT22;40730;53.068;6.572;2023-04-24T11:35:05;9.60;99.90
54832;DHT22;40730;53.068;6.572;2023-04-24T11:37:40;9.70;99.90
54832;DHT22;40730;53.068;6.572;2023-04-24T11:40:07;9.80;99.90
54832;DHT22;40730;53.068;6.572;2023-04-24T11:42:38;9.90;99.90
54832;DHT22;40730;53.068;6.572;2023-04-24T11:45:22;10.00;99.90
54832;DHT22;40730;53.068;6.572;2023-04-24T11:47:48;10.10;99.90
54832;DHT22;40730;53.068;6.572;2023-04-24T11:50:16;10.10;99.90
54832;DHT22;40730;53.068;6.572;2023-04-24T11:52:47;10.10;99.90
54832;DHT22;40730;53.068;6.572;2023-04-24T11:57:47;10.10;99.90
54832;DHT22;40730;53.068;6.572;2023-04-24T12:00:21;10.00;99.90
54832;DHT22;40730;53.068;6.572;2023-04-24T12:02:47;9.90;99.90
54832;DHT22;40730;53.068;6.572;2023-04-24T12:05:27;9.70;99.90
54832;DHT22;40730;53.068;6.572;2023-04-24T12:07:53;9.50;99.90
54832;DHT22;40730;53.068;6.572;2023-04-24T12:10:24;9.40;99.90
54832;DHT22;40730;53.068;6.572;2023-04-24T12:12:50;9.10;99.90
54832;DHT22;40730;53.068;6.572;2023-04-24T12:15:18;9.00;99.90
54832;DHT22;40730;53.068;6.572;2023-04-24T12:17:44;9.00;99.90
54832;DHT22;40730;53.068;6.572;2023-04-24T12:20:11;8.90;99.90
54832;DHT22;40730;53.068;6.572;2023-04-24T12:25:17;8.90;99.90
54832;DHT22;40730;53.068;6.572;2023-04-24T12:27:51;8.90;99.90
54832;DHT22;40730;53.068;6.572;2023-04-24T12:30:17;8.90;99.90
54832;DHT22;40730;53.068;6.572;2023-04-24T12:32:49;8.90;99.90
54832;DHT22;40730;53.068;6.572;2023-04-24T12:35:23;9.00;99.90
54832;DHT22;40730;53.068;6.572;2023-04-24T12:37:49;9.10;99.90
54832;DHT22;40730;53.068;6.572;2023-04-24T12:40:17;9.10;99.90
54832;DHT22;40730;53.068;6.572;2023-04-24T12:42:45;9.20;99.90
54832;DHT22;40730;53.068;6.572;2023-04-24T12:45:11;9.40;99.90
54832;DHT22;40730;53.068;6.572;2023-04-24T12:47:38;9.50;99.90
54832;DHT22;40730;53.068;6.572;2023-04-24T12:50:04;9.80;99.90
54832;DHT22;40730;53.068;6.572;2023-04-24T12:52:31;9.60;99.90
54832;DHT22;40730;53.068;6.572;2023-04-24T12:54:58;9.50;99.90
54832;DHT22;40730;53.068;6.572;2023-04-24T12:57:24;9.60;99.90
54832;DHT22;40730;53.068;6.572;2023-04-24T12:59:54;9.60;99.90
54832;DHT22;40730;53.068;6.572;2023-04-24T13:02:19;9.50;99.90
54832;DHT22;40730;53.068;6.572;2023-04-24T13:04:46;9.60;99.90
54832;DHT22;40730;53.068;6.572;2023-04-24T13:07:13;9.60;99.90
54832;DHT22;40730;53.068;6.572;2023-04-24T13:09:40;9.60;99.90
54832;DHT22;40730;53.068;6.572;2023-04-24T13:12:07;9.70;99.90
54832;DHT22;40730;53.068;6.572;2023-04-24T13:14:33;9.70;99.90
54832;DHT22;40730;53.068;6.572;2023-04-24T13:16:59;9.70;99.90
54832;DHT22;40730;53.068;6.572;2023-04-24T13:19:25;9.90;99.90
54832;DHT22;40730;53.068;6.572;2023-04-24T13:21:55;9.70;99.90
54832;DHT22;40730;53.068;6.572;2023-04-24T13:24:22;9.70;99.90
54832;DHT22;40730;53.068;6.572;2023-04-24T13:26:50;9.80;99.90
54832;DHT22;40730;53.068;6.572;2023-04-24T13:29:16;9.80;99.90
54832;DHT22;40730;53.068;6.572;2023-04-24T13:31:42;9.70;99.90
54832;DHT22;40730;53.068;6.572;2023-04-24T13:34:08;9.70;99.90
54832;DHT22;40730;53.068;6.572;2023-04-24T13:36:33;10.10;99.90
54832;DHT22;40730;53.068;6.572;2023-04-24T13:38:59;10.00;99.90
54832;DHT22;40730;53.068;6.572;2023-04-24T13:41:24;9.70;99.90
54832;DHT22;40730;53.068;6.572;2023-04-24T13:43:50;9.70;99.90
54832;DHT22;40730;53.068;6.572;2023-04-24T13:46:16;9.60;99.90
54832;DHT22;40730;53.068;6.572;2023-04-24T13:48:41;9.60;99.90
54832;DHT22;40730;53.068;6.572;2023-04-24T13:51:07;9.60;99.90
54832;DHT22;40730;53.068;6.572;2023-04-24T13:53:33;9.70;99.90
54832;DHT22;40730;53.068;6.572;2023-04-24T14:24:13;9.10;99.90
54832;DHT22;40730;53.068;6.572;2023-04-24T14:26:38;9.00;99.90
54832;DHT22;40730;53.068;6.572;2023-04-24T14:29:04;9.00;99.90
54832;DHT22;40730;53.068;6.572;2023-04-24T14:31:30;9.00;99.90
54832;DHT22;40730;53.068;6.572;2023-04-24T14:33:56;9.00;99.90
54832;DHT22;40730;53.068;6.572;2023-04-24T14:36:22;9.00;99.90
54832;DHT22;40730;53.068;6.572;2023-04-24T14:38:49;9.00;99.90
54832;DHT22;40730;53.068;6.572;2023-04-24T14:41:14;9.00;99.90
54832;DHT22;40730;53.068;6.572;2023-04-24T14:43:40;9.00;99.90
54832;DHT22;40730;53.068;6.572;2023-04-24T14:46:06;9.00;99.90
54832;DHT22;40730;53.068;6.572;2023-04-24T14:48:31;9.10;99.90
54832;DHT22;40730;53.068;6.572;2023-04-24T14:50:58;9.10;99.90
54832;DHT22;40730;53.068;6.572;2023-04-24T14:53:24;9.10;99.90
54832;DHT22;40730;53.068;6.572;2023-04-24T14:55:49;9.20;99.90
54832;DHT22;40730;53.068;6.572;2023-04-24T14:58:16;9.30;99.90
54832;DHT22;40730;53.068;6.572;2023-04-24T15:00:42;9.10;99.90
54832;DHT22;40730;53.068;6.572;2023-04-24T15:03:07;9.10;99.90
54832;DHT22;40730;53.068;6.572;2023-04-24T15:05:33;9.10;99.90
54832;DHT22;40730;53.068;6.572;2023-04-24T15:07:59;9.10;99.90
54832;DHT22;40730;53.068;6.572;2023-04-24T15:10:25;9.20;99.90
54832;DHT22;40730;53.068;6.572;2023-04-24T15:12:51;9.40;99.90
54832;DHT22;40730;53.068;6.572;2023-04-24T15:15:17;9.50;99.90
54832;DHT22;40730;53.068;6.572;2023-04-24T15:17:42;9.70;99.90
54832;DHT22;40730;53.068;6.572;2023-04-24T15:20:08;9.40;99.90
54832;DHT22;40730;53.068;6.572;2023-04-24T15:22:34;9.30;99.90
54832;DHT22;40730;53.068;6.572;2023-04-24T15:25:00;9.30;99.90
54832;DHT22;40730;53.068;6.572;2023-04-24T15:27:26;9.20;99.90
54832;DHT22;40730;53.068;6.572;2023-04-24T15:29:52;9.10;99.90
54832;DHT22;40730;53.068;6.572;2023-04-24T15:32:19;9.10;99.90
54832;DHT22;40730;53.068;6.572;2023-04-24T15:34:44;9.00;99.90
54832;DHT22;40730;53.068;6.572;2023-04-24T15:37:10;9.00;99.90
54832;DHT22;40730;53.068;6.572;2023-04-24T15:39:36;9.00;99.90
54832;DHT22;40730;53.068;6.572;2023-04-24T15:42:02;9.00;99.90
54832;DHT22;40730;53.068;6.572;2023-04-24T15:44:28;8.90;99.90
54832;DHT22;40730;53.068;6.572;2023-04-24T15:46:54;8.90;99.90
54832;DHT22;40730;53.068;6.572;2023-04-24T15:49:20;8.90;99.90
54832;DHT22;40730;53.068;6.572;2023-04-24T15:51:46;8.90;99.90
54832;DHT22;40730;53.068;6.572;2023-04-24T15:54:11;8.90;99.90
54832;DHT22;40730;53.068;6.572;2023-04-24T15:56:37;8.90;99.90
54832;DHT22;40730;53.068;6.572;2023-04-24T15:59:03;8.90;99.90
54832;DHT22;40730;53.068;6.572;2023-04-24T16:01:29;8.90;99.90
54832;DHT22;40730;53.068;6.572;2023-04-24T16:03:55;8.90;99.90
54832;DHT22;40730;53.068;6.572;2023-04-24T16:06:21;9.00;99.90
54832;DHT22;40730;53.068;6.572;2023-04-24T16:08:47;9.10;99.90
54832;DHT22;40730;53.068;6.572;2023-04-24T16:11:12;9.00;99.90
54832;DHT22;40730;53.068;6.572;2023-04-24T16:13:38;8.90;99.90
54832;DHT22;40730;53.068;6.572;2023-04-24T16:16:04;9.00;99.90
54832;DHT22;40730;53.068;6.572;2023-04-24T16:18:29;9.10;99.90
54832;DHT22;40730;53.068;6.572;2023-04-24T16:20:55;9.10;99.90
54832;DHT22;40730;53.068;6.572;2023-04-24T16:23:21;9.10;99.90
54832;DHT22;40730;53.068;6.572;2023-04-24T16:25:47;9.10;99.90
54832;DHT22;40730;53.068;6.572;2023-04-24T16:28:12;9.00;99.90
54832;DHT22;40730;53.068;6.572;2023-04-24T16:30:39;9.00;99.90
54832;DHT22;40730;53.068;6.572;2023-04-24T16:33:05;9.00;99.90
54832;DHT22;40730;53.068;6.572;2023-04-24T16:35:34;9.10;99.90